createdAt,value
2022-12-11T00:01:42.821Z,102.80
2022-12-11T00:04:09.329Z,110.87
2022-12-11T00:06:36.029Z,91.90
2022-12-11T00:09:02.591Z,104.37
2022-12-11T00:11:29.090Z,80.37
2022-12-11T00:13:55.633Z,85.10
2022-12-11T00:16:26.748Z,83.47
2022-12-11T00:18:53.823Z,75.57
2022-12-11T00:21:20.326Z,81.50
2022-12-11T00:23:46.776Z,80.60
2022-12-11T00:26:15.538Z,79.60
2022-12-11T00:28:42.889Z,84.30
2022-12-11T00:31:13.316Z,88.43
2022-12-11T00:33:39.791Z,80.70
2022-12-11T00:36:23.018Z,81.13
2022-12-11T00:38:50.269Z,92.30
2022-12-11T00:41:17.569Z,81.17
2022-12-11T00:43:44.125Z,96.37
2022-12-11T00:46:11.010Z,86.03
2022-12-11T00:48:37.759Z,88.70
2022-12-11T00:51:04.725Z,92.00
2022-12-11T00:53:31.317Z,95.90
2022-12-11T00:55:57.910Z,102.57
2022-12-11T00:58:24.664Z,91.03
2022-12-11T01:00:53.246Z,92.17
2022-12-11T01:03:19.765Z,82.30
2022-12-11T01:05:54.083Z,86.63
2022-12-11T01:08:20.991Z,93.70
2022-12-11T01:10:47.616Z,89.27
2022-12-11T01:13:14.192Z,87.47
2022-12-11T01:15:44.006Z,85.30
2022-12-11T01:18:12.348Z,86.17
2022-12-11T01:20:40.987Z,82.17
2022-12-11T01:23:07.406Z,89.90
2022-12-11T01:25:35.929Z,85.47
2022-12-11T01:28:02.384Z,87.50
2022-12-11T01:30:28.861Z,81.93
2022-12-11T01:32:55.454Z,80.43
2022-12-11T01:35:22.151Z,85.27
2022-12-11T01:37:49.032Z,81.77
2022-12-11T01:40:18.940Z,86.37
2022-12-11T01:42:45.855Z,91.80
2022-12-11T01:45:27.076Z,86.20
2022-12-11T01:48:16.052Z,75.70
2022-12-11T01:50:48.998Z,74.03
2022-12-11T01:53:21.040Z,73.90
2022-12-11T01:55:49.420Z,75.20
2022-12-11T01:58:16.873Z,80.00
2022-12-11T02:00:43.266Z,88.90
2022-12-11T02:03:09.874Z,83.60
2022-12-11T02:05:36.915Z,79.67
2022-12-11T02:08:04.463Z,70.87
2022-12-11T02:10:56.389Z,70.70
2022-12-11T02:13:44.522Z,67.53
2022-12-11T02:16:21.592Z,75.60
2022-12-11T02:19:00.725Z,83.27
2022-12-11T02:21:38.439Z,74.00
2022-12-11T02:24:22.901Z,79.30
2022-12-11T02:26:57.500Z,69.57
2022-12-11T02:29:43.919Z,76.67
2022-12-11T02:32:16.813Z,80.40
2022-12-11T02:34:53.310Z,62.13
2022-12-11T02:37:23.331Z,74.43
2022-12-11T02:39:54.194Z,70.80
2022-12-11T02:42:23.370Z,73.77
2022-12-11T02:44:51.732Z,73.83
2022-12-11T02:47:19.917Z,76.67
2022-12-11T02:49:50.192Z,71.23
2022-12-11T02:52:20.290Z,66.13
2022-12-11T02:54:48.332Z,70.33
2022-12-11T02:57:20.776Z,67.40
2022-12-11T02:59:47.270Z,71.53
2022-12-11T03:02:16.971Z,69.90
2022-12-11T03:04:44.637Z,73.90
2022-12-11T03:07:15.125Z,71.83
2022-12-11T03:09:47.044Z,62.80
2022-12-11T03:12:20.531Z,66.90
2022-12-11T03:14:48.904Z,66.77
2022-12-11T03:17:20.148Z,63.40
2022-12-11T03:19:50.453Z,64.43
2022-12-11T03:22:22.701Z,68.13
2022-12-11T03:25:01.001Z,63.20
2022-12-11T03:27:33.036Z,61.60
2022-12-11T03:30:04.536Z,62.83
2022-12-11T03:32:46.305Z,63.93
2022-12-11T03:35:27.586Z,64.20
2022-12-11T03:37:56.698Z,66.07
2022-12-11T03:40:25.764Z,67.40
2022-12-11T03:42:56.330Z,66.47
2022-12-11T03:45:25.392Z,66.50
2022-12-11T03:47:55.002Z,68.23
2022-12-11T03:50:24.091Z,67.63
2022-12-11T03:52:51.041Z,69.80
2022-12-11T03:55:20.937Z,70.67
2022-12-11T03:57:47.518Z,67.83
2022-12-11T04:00:17.511Z,71.07
2022-12-11T04:02:45.096Z,68.27
2022-12-11T04:05:12.337Z,72.03
2022-12-11T04:07:39.068Z,70.60
2022-12-11T04:10:07.113Z,68.43
2022-12-11T04:12:33.522Z,71.70
2022-12-11T04:15:02.766Z,71.47
2022-12-11T04:17:53.330Z,71.63
2022-12-11T04:20:39.667Z,70.10
2022-12-11T04:23:33.539Z,69.90
2022-12-11T04:26:06.169Z,68.33
2022-12-11T04:28:32.709Z,80.63
2022-12-11T04:30:59.251Z,75.13
2022-12-11T04:33:25.895Z,77.23
2022-12-11T04:35:52.338Z,71.57
2022-12-11T04:38:18.825Z,73.20
2022-12-11T04:40:45.313Z,77.23
2022-12-11T04:43:11.743Z,73.03
2022-12-11T04:45:38.202Z,78.63
2022-12-11T04:48:04.848Z,65.67
2022-12-11T04:50:31.302Z,74.57
2022-12-11T04:52:58.059Z,68.40
2022-12-11T04:55:24.526Z,66.50
2022-12-11T04:57:50.982Z,71.10
2022-12-11T05:00:17.517Z,69.73
2022-12-11T05:02:44.193Z,73.70
2022-12-11T05:05:11.690Z,75.83
2022-12-11T05:07:39.762Z,81.40
2022-12-11T05:10:06.861Z,67.33
2022-12-11T05:12:33.620Z,69.50
2022-12-11T05:15:00.145Z,69.80
2022-12-11T05:17:26.729Z,70.20
2022-12-11T05:19:53.251Z,66.53
2022-12-11T05:22:19.664Z,68.53
2022-12-11T05:24:46.234Z,69.07
2022-12-11T05:27:12.724Z,67.80
2022-12-11T05:29:39.203Z,71.97
2022-12-11T05:32:05.879Z,63.70
2022-12-11T05:34:32.900Z,61.47
2022-12-11T05:36:59.475Z,61.53
2022-12-11T05:39:25.907Z,60.20
2022-12-11T05:41:52.341Z,54.33
2022-12-11T05:44:18.795Z,58.40
2022-12-11T05:46:45.266Z,55.90
2022-12-11T05:49:11.870Z,56.83
2022-12-11T05:51:39.675Z,61.60
2022-12-11T05:54:06.303Z,57.13
2022-12-11T05:56:34.807Z,59.00
2022-12-11T05:59:02.459Z,54.87
2022-12-11T06:01:36.181Z,58.13
2022-12-11T06:04:05.043Z,54.30
2022-12-11T06:06:32.467Z,55.70
2022-12-11T06:09:00.163Z,61.43
2022-12-11T06:11:29.157Z,55.50
2022-12-11T06:13:55.808Z,57.17
2022-12-11T06:16:23.137Z,59.70
2022-12-11T06:18:49.578Z,57.03
2022-12-11T06:21:24.730Z,57.73
2022-12-11T06:23:54.868Z,58.70
2022-12-11T06:26:21.897Z,58.77
2022-12-11T06:28:48.937Z,56.03
2022-12-11T06:31:16.043Z,58.23
2022-12-11T06:33:44.441Z,54.97
2022-12-11T06:36:22.472Z,58.37
2022-12-11T06:38:49.064Z,52.37
2022-12-11T06:41:16.067Z,56.50
2022-12-11T06:43:42.968Z,56.80
2022-12-11T06:46:12.912Z,54.43
2022-12-11T06:48:40.150Z,63.37
2022-12-11T06:51:18.164Z,56.63
2022-12-11T06:53:44.937Z,61.07
2022-12-11T06:56:15.652Z,65.17
2022-12-11T06:58:44.026Z,61.47
2022-12-11T07:01:25.996Z,59.80
2022-12-11T07:03:54.268Z,62.37
2022-12-11T07:06:20.861Z,59.57
2022-12-11T07:08:47.658Z,58.00
2022-12-11T07:11:16.275Z,63.37
2022-12-11T07:13:42.844Z,58.23
2022-12-11T07:16:11.335Z,63.47
2022-12-11T07:18:42.899Z,62.13
2022-12-11T07:21:11.735Z,59.07
2022-12-11T07:23:38.418Z,60.70
2022-12-11T07:26:13.505Z,63.57
2022-12-11T07:28:40.945Z,67.90
2022-12-11T07:31:09.646Z,63.10
2022-12-11T07:33:36.428Z,69.40
2022-12-11T07:36:04.476Z,56.60
2022-12-11T07:38:31.002Z,64.93
2022-12-11T07:41:01.697Z,63.13
2022-12-11T07:43:28.628Z,58.37
2022-12-11T07:45:55.175Z,58.50
2022-12-11T07:48:21.686Z,58.37
2022-12-11T07:50:48.200Z,58.73
2022-12-11T07:53:14.840Z,59.93
2022-12-11T07:55:41.607Z,57.30
2022-12-11T07:58:08.059Z,57.20
2022-12-11T08:00:34.531Z,60.50
2022-12-11T08:03:01.134Z,54.27
2022-12-11T08:05:28.945Z,50.93
2022-12-11T08:07:55.936Z,59.67
2022-12-11T08:10:22.948Z,60.87
2022-12-11T08:12:49.395Z,58.80
2022-12-11T08:15:15.871Z,57.70
2022-12-11T08:17:42.312Z,58.47
2022-12-11T08:20:09.385Z,58.20
2022-12-11T08:22:36.198Z,63.07
2022-12-11T08:25:02.762Z,54.17
2022-12-11T08:27:29.555Z,50.20
2022-12-11T08:29:56.204Z,60.83
2022-12-11T08:32:22.724Z,55.23
2022-12-11T08:34:51.327Z,55.37
2022-12-11T08:37:17.756Z,57.27
2022-12-11T08:39:45.022Z,55.23
2022-12-11T08:42:11.482Z,51.87
2022-12-11T08:44:38.069Z,51.10
2022-12-11T08:47:04.640Z,53.90
2022-12-11T08:49:34.383Z,52.20
2022-12-11T08:52:02.587Z,50.20
2022-12-11T08:54:29.044Z,56.53
2022-12-11T08:56:58.155Z,51.60
2022-12-11T08:59:25.696Z,54.00
2022-12-11T09:01:52.496Z,52.37
2022-12-11T09:04:18.951Z,53.13
2022-12-11T09:06:45.368Z,51.73
2022-12-11T09:09:12.594Z,52.83
2022-12-11T09:11:39.515Z,59.30
2022-12-11T09:14:07.865Z,55.50
2022-12-11T09:16:37.858Z,53.00
2022-12-11T09:19:04.512Z,49.83
2022-12-11T09:21:31.021Z,48.43
2022-12-11T09:24:00.092Z,49.40
2022-12-11T09:26:28.305Z,47.10
2022-12-11T09:28:55.091Z,49.63
2022-12-11T09:31:33.179Z,51.73
2022-12-11T09:34:03.521Z,46.27
2022-12-11T09:36:30.650Z,46.10
2022-12-11T09:39:01.019Z,48.60
2022-12-11T09:41:58.120Z,49.83
2022-12-11T09:44:41.568Z,47.67
2022-12-11T09:47:36.585Z,49.00
2022-12-11T09:50:09.241Z,47.17
2022-12-11T09:52:44.112Z,47.50
2022-12-11T09:55:17.460Z,51.07
2022-12-11T09:58:08.725Z,48.90
2022-12-11T10:00:49.131Z,50.97
2022-12-11T10:03:29.999Z,52.57
2022-12-11T10:06:17.724Z,46.07
2022-12-11T10:09:02.452Z,50.37
2022-12-11T10:11:40.045Z,48.53
2022-12-11T10:14:06.515Z,50.57
2022-12-11T10:16:44.306Z,54.53
2022-12-11T10:19:32.014Z,55.03
2022-12-11T10:22:01.001Z,53.07
2022-12-11T10:27:34.726Z,58.20
2022-12-11T10:30:21.166Z,57.90
2022-12-11T10:32:56.573Z,46.93
2022-12-11T10:35:44.780Z,51.40
2022-12-11T10:38:20.379Z,52.23
2022-12-11T10:40:50.954Z,52.53
2022-12-11T10:43:17.785Z,51.47
2022-12-11T10:45:54.839Z,50.43
2022-12-11T10:48:22.239Z,53.90
2022-12-11T10:51:18.176Z,60.27
2022-12-11T10:53:50.847Z,54.07
2022-12-11T10:56:26.082Z,54.60
2022-12-11T10:58:52.718Z,45.60
2022-12-11T11:01:23.065Z,55.73
2022-12-11T11:04:06.586Z,48.60
2022-12-11T11:06:33.834Z,57.70
2022-12-11T11:09:01.721Z,54.90
2022-12-11T11:11:39.402Z,54.60
2022-12-11T11:14:12.229Z,53.90
2022-12-11T11:16:40.441Z,48.00
2022-12-11T11:19:07.392Z,56.13
2022-12-11T11:21:35.851Z,53.67
2022-12-11T11:24:03.609Z,55.40
2022-12-11T11:26:56.579Z,55.60
2022-12-11T11:29:31.941Z,59.80
2022-12-11T11:32:20.629Z,57.73
2022-12-11T11:34:47.064Z,57.53
2022-12-11T11:37:28.674Z,50.97
2022-12-11T11:40:01.370Z,53.73
2022-12-11T11:42:44.803Z,51.63
2022-12-11T11:45:38.589Z,53.83
2022-12-11T11:48:17.281Z,56.93
2022-12-11T11:50:46.338Z,57.03
2022-12-11T11:53:20.818Z,52.00
2022-12-11T11:56:02.996Z,54.40
2022-12-11T11:58:47.641Z,59.87
2022-12-11T12:01:17.603Z,57.10
2022-12-11T12:03:45.532Z,53.77
2022-12-11T12:06:50.533Z,55.43
2022-12-11T12:09:23.553Z,60.63
2022-12-11T12:12:10.940Z,54.07
2022-12-11T12:14:52.958Z,53.87
2022-12-11T12:17:27.605Z,59.27
2022-12-11T12:20:03.099Z,56.30
2022-12-11T12:22:46.395Z,64.17
2022-12-11T12:25:28.978Z,55.33
2022-12-11T12:28:03.350Z,56.23
2022-12-11T12:30:45.345Z,57.87
2022-12-11T12:33:30.138Z,57.97
2022-12-11T12:36:07.231Z,55.70
2022-12-11T12:38:46.464Z,57.10
2022-12-11T12:41:22.498Z,58.50
2022-12-11T12:44:08.313Z,58.67
2022-12-11T12:47:02.440Z,58.60
2022-12-11T12:49:49.005Z,61.27
2022-12-11T12:52:36.746Z,58.70
2022-12-11T12:55:14.293Z,59.47
2022-12-11T12:57:50.793Z,53.10
2022-12-11T13:00:38.778Z,60.77
2022-12-11T13:03:29.351Z,56.93
2022-12-11T13:05:58.903Z,56.50
2022-12-11T13:08:28.903Z,53.60
2022-12-11T13:11:03.445Z,55.67
2022-12-11T13:13:39.614Z,64.60
2022-12-11T13:16:27.231Z,54.37
2022-12-11T13:18:54.520Z,57.20
2022-12-11T13:21:29.434Z,58.37
2022-12-11T13:24:27.305Z,61.67
2022-12-11T13:26:54.122Z,60.47
2022-12-11T13:29:38.569Z,57.90
2022-12-11T13:32:08.062Z,57.00
2022-12-11T13:34:37.604Z,55.13
2022-12-11T13:37:05.639Z,59.33
2022-12-11T13:39:37.486Z,62.23
2022-12-11T13:42:20.654Z,57.83
2022-12-11T13:44:48.909Z,53.97
2022-12-11T13:47:18.559Z,65.07
2022-12-11T13:49:58.465Z,56.93
2022-12-11T13:52:27.632Z,63.50
2022-12-11T13:54:56.029Z,61.80
2022-12-11T13:57:30.977Z,56.00
2022-12-11T13:59:59.371Z,57.20
2022-12-11T14:02:42.434Z,56.53
2022-12-11T14:05:12.618Z,55.63
2022-12-11T14:07:53.462Z,73.80
2022-12-11T14:10:23.611Z,56.87
2022-12-11T14:12:59.224Z,57.10
2022-12-11T14:15:28.097Z,58.13
2022-12-11T14:17:55.717Z,52.00
2022-12-11T14:20:28.804Z,51.00
2022-12-11T14:23:13.725Z,55.30
2022-12-11T14:25:40.243Z,57.73
2022-12-11T14:28:16.857Z,58.80
2022-12-11T14:30:49.499Z,58.63
2022-12-11T14:33:17.765Z,55.87
2022-12-11T14:35:45.189Z,58.00
2022-12-11T14:38:18.752Z,57.60
2022-12-11T14:40:48.801Z,58.93
2022-12-11T14:43:23.514Z,52.67
2022-12-11T14:45:57.796Z,55.03
2022-12-11T14:48:30.566Z,56.97
2022-12-11T14:51:01.627Z,55.80
2022-12-11T14:53:42.342Z,54.73
2022-12-11T14:56:18.699Z,56.70
2022-12-11T14:58:55.174Z,64.20
2022-12-11T15:01:28.169Z,52.00
2022-12-11T15:04:26.742Z,55.20
2022-12-11T15:06:53.283Z,56.27
2022-12-11T15:09:38.289Z,58.27
2022-12-11T15:12:13.648Z,57.27
2022-12-11T15:14:47.199Z,61.33
2022-12-11T15:17:15.071Z,58.50
2022-12-11T15:19:47.231Z,62.60
2022-12-11T15:22:16.451Z,57.50
2022-12-11T15:24:46.385Z,59.03
2022-12-11T15:27:24.902Z,59.27
2022-12-11T15:29:51.619Z,61.33
2022-12-11T15:32:19.420Z,57.37
2022-12-11T15:35:22.717Z,54.93
2022-12-11T15:37:54.421Z,61.67
2022-12-11T15:40:21.208Z,60.63
2022-12-11T15:42:48.529Z,56.43
2022-12-11T15:45:20.465Z,57.23
2022-12-11T15:47:48.248Z,58.37
2022-12-11T15:50:23.711Z,56.97
2022-12-11T15:52:51.840Z,58.40
2022-12-11T15:55:19.531Z,64.70
2022-12-11T15:58:01.909Z,58.23
2022-12-11T16:00:28.529Z,68.00
2022-12-11T16:02:57.029Z,62.23
2022-12-11T16:05:23.697Z,102.07
2022-12-11T16:07:54.807Z,78.27
2022-12-11T16:10:22.084Z,84.07
2022-12-11T16:12:48.705Z,73.60
2022-12-11T16:15:21.423Z,70.47
2022-12-11T16:17:49.771Z,74.97
2022-12-11T16:20:16.285Z,66.83
2022-12-11T16:22:42.765Z,63.40
2022-12-11T16:25:09.481Z,63.37
2022-12-11T16:27:36.264Z,61.80
2022-12-11T16:30:03.620Z,61.43
2022-12-11T16:32:30.062Z,60.80
2022-12-11T16:35:00.702Z,65.40
2022-12-11T16:37:27.342Z,57.93
2022-12-11T16:39:53.808Z,58.07
2022-12-11T16:42:20.273Z,55.73
2022-12-11T16:44:46.919Z,62.07
2022-12-11T16:47:13.300Z,59.37
2022-12-11T16:49:39.813Z,62.33
2022-12-11T16:52:06.256Z,59.27
2022-12-11T16:54:32.682Z,66.30
2022-12-11T16:56:59.223Z,63.53
2022-12-11T16:59:25.686Z,61.17
2022-12-11T17:01:52.334Z,58.47
2022-12-11T17:04:18.951Z,61.33
2022-12-11T17:06:46.293Z,58.90
2022-12-11T17:09:12.788Z,59.83
2022-12-11T17:11:39.203Z,68.77
2022-12-11T17:14:05.816Z,61.80
2022-12-11T17:16:33.913Z,63.60
2022-12-11T17:19:00.788Z,60.33
2022-12-11T17:21:27.326Z,60.73
2022-12-11T17:23:53.842Z,68.00
2022-12-11T17:26:20.403Z,68.30
2022-12-11T17:28:46.978Z,66.70
2022-12-11T17:31:16.495Z,59.80
2022-12-11T17:33:44.225Z,62.30
2022-12-11T17:36:13.552Z,64.33
2022-12-11T17:38:40.233Z,58.80
2022-12-11T17:41:07.981Z,56.27
2022-12-11T17:43:34.550Z,62.73
2022-12-11T17:46:01.039Z,62.03
2022-12-11T17:48:27.985Z,58.40
2022-12-11T17:50:54.595Z,57.43
2022-12-11T17:53:22.060Z,58.57
2022-12-11T17:55:49.738Z,55.37
2022-12-11T17:58:18.897Z,59.93
2022-12-11T18:00:47.154Z,54.33
2022-12-11T18:03:14.174Z,57.73
2022-12-11T18:05:42.735Z,65.33
2022-12-11T18:08:13.080Z,57.90
2022-12-11T18:10:39.884Z,58.60
2022-12-11T18:13:06.394Z,65.93
2022-12-11T18:15:33.225Z,64.57
2022-12-11T18:17:59.765Z,54.43
2022-12-11T18:20:27.362Z,66.70
2022-12-11T18:22:55.353Z,62.33
2022-12-11T18:25:21.894Z,50.33
2022-12-11T18:27:48.566Z,50.17
2022-12-11T18:30:15.235Z,55.30
2022-12-11T18:32:42.936Z,52.03
2022-12-11T18:35:11.037Z,52.13
2022-12-11T18:37:38.365Z,62.07
2022-12-11T18:40:06.018Z,53.73
2022-12-11T18:42:33.711Z,50.97
2022-12-11T18:45:00.937Z,54.53
2022-12-11T18:47:27.748Z,50.80
2022-12-11T18:49:54.343Z,58.00
2022-12-11T18:52:20.851Z,52.10
2022-12-11T18:54:47.511Z,56.87
2022-12-11T18:57:13.941Z,64.50
2022-12-11T18:59:40.408Z,54.10
2022-12-11T19:02:07.356Z,55.07
2022-12-11T19:04:35.906Z,54.20
2022-12-11T19:07:02.421Z,55.10
2022-12-11T19:09:31.614Z,53.73
2022-12-11T19:12:00.401Z,64.23
2022-12-11T19:14:26.937Z,58.43
2022-12-11T19:16:53.415Z,55.90
2022-12-11T19:19:21.437Z,69.03
2022-12-11T19:21:49.260Z,70.93
2022-12-11T19:24:21.054Z,69.53
2022-12-11T19:26:47.917Z,95.67
2022-12-11T19:29:34.651Z,119.93
2022-12-11T19:32:04.759Z,90.03
2022-12-11T19:34:31.309Z,100.93
2022-12-11T19:36:58.010Z,119.07
2022-12-11T19:39:25.067Z,70.70
2022-12-11T19:41:51.475Z,71.23
2022-12-11T19:44:18.121Z,53.20
2022-12-11T19:46:44.723Z,57.57
2022-12-11T19:49:12.140Z,56.83
2022-12-11T19:51:40.705Z,51.40
2022-12-11T19:54:09.482Z,62.43
2022-12-11T19:56:36.127Z,54.40
2022-12-11T19:59:08.552Z,52.50
2022-12-11T20:01:37.509Z,53.37
2022-12-11T20:04:07.724Z,50.50
2022-12-11T20:06:36.918Z,52.50
2022-12-11T20:09:05.350Z,51.90
2022-12-11T20:11:33.069Z,57.17
2022-12-11T20:14:00.339Z,49.10
2022-12-11T20:16:46.372Z,55.37
2022-12-11T20:19:13.784Z,53.13
2022-12-11T20:21:40.582Z,50.23
2022-12-11T20:24:07.579Z,53.40
2022-12-11T20:26:36.473Z,52.23
2022-12-11T20:29:07.272Z,61.67
2022-12-11T20:31:35.258Z,55.77
2022-12-11T20:34:01.798Z,59.53
2022-12-11T20:36:28.337Z,52.00
2022-12-11T20:38:54.850Z,55.87
2022-12-11T20:41:23.711Z,54.50
2022-12-11T20:43:53.031Z,54.03
2022-12-11T20:46:20.968Z,53.93
2022-12-11T20:48:48.380Z,56.13
2022-12-11T20:51:22.434Z,60.53
2022-12-11T20:53:57.502Z,54.30
2022-12-11T20:56:25.919Z,50.63
2022-12-11T20:58:52.473Z,50.43
2022-12-11T21:01:22.622Z,53.63
2022-12-11T21:03:49.907Z,56.30
2022-12-11T21:06:31.155Z,54.40
2022-12-11T21:09:00.384Z,55.63
2022-12-11T21:11:27.686Z,56.67
2022-12-11T21:13:54.502Z,58.03
2022-12-11T21:16:22.160Z,54.43
2022-12-11T21:18:48.987Z,53.07
2022-12-11T21:21:16.426Z,59.70
2022-12-11T21:23:42.997Z,57.77
2022-12-11T21:26:09.597Z,52.03
2022-12-11T21:28:36.171Z,64.73
2022-12-11T21:31:06.978Z,56.77
2022-12-11T21:33:33.995Z,52.83
2022-12-11T21:36:00.633Z,54.00
2022-12-11T21:38:28.177Z,61.50
2022-12-11T21:40:55.817Z,52.33
2022-12-11T21:43:23.393Z,56.97
2022-12-11T21:46:06.488Z,52.67
2022-12-11T21:48:33.382Z,55.87
2022-12-11T21:51:12.474Z,47.03
2022-12-11T21:53:39.040Z,51.00
2022-12-11T21:56:13.695Z,52.40
2022-12-11T21:58:42.127Z,50.07
2022-12-11T22:01:22.318Z,49.67
2022-12-11T22:03:49.928Z,69.20
2022-12-11T22:06:16.748Z,58.40
2022-12-11T22:08:43.320Z,55.57
2022-12-11T22:11:17.952Z,60.60
2022-12-11T22:13:44.435Z,55.10
2022-12-11T22:16:11.359Z,52.70
2022-12-11T22:18:37.975Z,47.70
2022-12-11T22:21:05.241Z,46.20
2022-12-11T22:23:31.764Z,46.93
2022-12-11T22:25:58.259Z,55.80
2022-12-11T22:28:24.663Z,62.00
2022-12-11T22:30:51.265Z,51.17
2022-12-11T22:33:17.726Z,50.10
2022-12-11T22:35:44.216Z,51.47
2022-12-11T22:38:10.621Z,51.73
2022-12-11T22:40:41.135Z,46.50
2022-12-11T22:43:07.736Z,54.20
2022-12-11T22:45:39.023Z,54.97
2022-12-11T22:48:06.615Z,49.20
2022-12-11T22:50:33.719Z,51.83
2022-12-11T22:53:00.273Z,52.17
2022-12-11T22:55:26.745Z,51.37
2022-12-11T22:57:53.433Z,53.90
2022-12-11T23:00:20.013Z,46.37
2022-12-11T23:02:46.643Z,50.60
2022-12-11T23:05:13.857Z,50.07
2022-12-11T23:07:40.867Z,48.27
2022-12-11T23:10:08.844Z,53.00
2022-12-11T23:12:36.268Z,55.70
2022-12-11T23:15:02.794Z,49.73
2022-12-11T23:17:29.293Z,48.90
2022-12-11T23:19:55.794Z,47.53
2022-12-11T23:22:22.215Z,48.37
2022-12-11T23:24:48.641Z,44.73
2022-12-11T23:27:15.327Z,51.47
2022-12-11T23:29:41.974Z,51.93
2022-12-11T23:32:08.381Z,47.77
2022-12-11T23:34:34.774Z,57.10
2022-12-11T23:37:01.236Z,50.30
2022-12-11T23:39:27.711Z,43.57
2022-12-11T23:41:54.186Z,45.23
2022-12-11T23:44:20.664Z,48.00
2022-12-11T23:46:47.109Z,49.87
2022-12-11T23:49:13.547Z,45.83
2022-12-11T23:51:40.222Z,48.90
2022-12-11T23:54:06.692Z,46.30
2022-12-11T23:56:33.300Z,45.60
2022-12-11T23:58:59.747Z,48.73
